KSNL/SNL METAR and TAF weather

Enter ICAO airport designator
Station Type Date Time Source
KSNL METAR 2021/07/28 03:35 UTC NOAA

KSNL 280335Z AUTO 00000KT 10SM CLR 25/22 A3004 RMK AO2 T02460217


Station Type Date Time Source
KSNL Decoded METAR 2021/07/28 03:35 UTC NOAA

Shawnee, Shawnee Municipal Airport, OK, United States (KSNL) 35-21-26N 096-56-34W
Jul 27, 2021 - 11:35 PM EDT / 2021.07.28 0335 UTC
Wind: Calm:0
Visibility: 10 mile(s):0
Sky conditions: clear
Temperature: 76.3 F (24.6 C)
Dew Point: 71.1 F (21.7 C)
Relative Humidity: 83%
Pressure (altimeter): 30.04 in. Hg (1017 hPa)
ob: KSNL 280335Z AUTO 00000KT 10SM CLR 25/22 A3004 RMK AO2 T02460217
cycle: 3

Station Type Date Time Source
KSNL TAF UTC NOAA

Error!

Example: see airport list